sensor_id;sensor_type;location;lat;lon;timestamp;P1;durP1;ratioP1;P2;durP2;ratioP2
29934;SDS011;19905;53.370;-6.314;2023-07-13T00:02:19;7.70;;;2.03;;
29934;SDS011;19905;53.370;-6.314;2023-07-13T00:04:49;8.90;;;2.10;;
29934;SDS011;19905;53.370;-6.314;2023-07-13T00:07:21;9.13;;;2.20;;
29934;SDS011;19905;53.370;-6.314;2023-07-13T00:09:52;8.65;;;2.30;;
29934;SDS011;19905;53.370;-6.314;2023-07-13T00:12:29;11.38;;;2.17;;
29934;SDS011;19905;53.370;-6.314;2023-07-13T00:15:03;8.23;;;2.17;;
29934;SDS011;19905;53.370;-6.314;2023-07-13T00:17:35;7.80;;;1.90;;
29934;SDS011;19905;53.370;-6.314;2023-07-13T00:20:06;12.38;;;2.33;;
29934;SDS011;19905;53.370;-6.314;2023-07-13T00:22:38;7.80;;;2.20;;
29934;SDS011;19905;53.370;-6.314;2023-07-13T00:25:14;11.30;;;2.53;;
29934;SDS011;19905;53.370;-6.314;2023-07-13T00:27:47;6.75;;;2.00;;
29934;SDS011;19905;53.370;-6.314;2023-07-13T00:30:17;9.85;;;2.45;;
29934;SDS011;19905;53.370;-6.314;2023-07-13T00:32:47;10.13;;;2.30;;
29934;SDS011;19905;53.370;-6.314;2023-07-13T00:35:34;6.43;;;2.28;;
29934;SDS011;19905;53.370;-6.314;2023-07-13T00:38:04;9.43;;;2.30;;
29934;SDS011;19905;53.370;-6.314;2023-07-13T00:40:35;9.45;;;2.45;;
29934;SDS011;19905;53.370;-6.314;2023-07-13T00:43:04;8.82;;;2.28;;
29934;SDS011;19905;53.370;-6.314;2023-07-13T00:48:45;11.60;;;2.20;;
29934;SDS011;19905;53.370;-6.314;2023-07-13T00:51:18;12.00;;;2.55;;
29934;SDS011;19905;53.370;-6.314;2023-07-13T00:53:54;10.38;;;2.47;;
29934;SDS011;19905;53.370;-6.314;2023-07-13T00:56:27;8.82;;;2.40;;
29934;SDS011;19905;53.370;-6.314;2023-07-13T00:58:59;10.20;;;2.28;;
29934;SDS011;19905;53.370;-6.314;2023-07-13T01:01:31;12.48;;;2.40;;
29934;SDS011;19905;53.370;-6.314;2023-07-13T01:04:00;14.38;;;2.58;;
29934;SDS011;19905;53.370;-6.314;2023-07-13T01:06:34;10.80;;;2.38;;
29934;SDS011;19905;53.370;-6.314;2023-07-13T01:09:08;14.48;;;2.40;;
29934;SDS011;19905;53.370;-6.314;2023-07-13T01:11:42;10.25;;;2.33;;
29934;SDS011;19905;53.370;-6.314;2023-07-13T01:14:11;10.88;;;2.25;;
29934;SDS011;19905;53.370;-6.314;2023-07-13T01:16:41;9.50;;;2.22;;
29934;SDS011;19905;53.370;-6.314;2023-07-13T01:19:13;8.38;;;2.33;;
29934;SDS011;19905;53.370;-6.314;2023-07-13T01:21:53;16.45;;;3.20;;
29934;SDS011;19905;53.370;-6.314;2023-07-13T01:24:25;13.57;;;2.38;;
29934;SDS011;19905;53.370;-6.314;2023-07-13T01:26:54;11.85;;;2.13;;
29934;SDS011;19905;53.370;-6.314;2023-07-13T01:29:23;17.00;;;2.60;;
29934;SDS011;19905;53.370;-6.314;2023-07-13T01:31:58;9.07;;;2.38;;
29934;SDS011;19905;53.370;-6.314;2023-07-13T01:34:30;15.15;;;2.65;;
29934;SDS011;19905;53.370;-6.314;2023-07-13T01:37:06;11.73;;;2.42;;
29934;SDS011;19905;53.370;-6.314;2023-07-13T01:39:35;13.25;;;2.50;;
29934;SDS011;19905;53.370;-6.314;2023-07-13T01:42:05;12.88;;;2.53;;
29934;SDS011;19905;53.370;-6.314;2023-07-13T01:44:34;14.88;;;2.45;;
29934;SDS011;19905;53.370;-6.314;2023-07-13T01:49:37;12.50;;;2.55;;
29934;SDS011;19905;53.370;-6.314;2023-07-13T01:52:08;10.30;;;2.17;;
29934;SDS011;19905;53.370;-6.314;2023-07-13T01:54:39;12.32;;;2.50;;
29934;SDS011;19905;53.370;-6.314;2023-07-13T02:00:09;8.43;;;2.60;;
29934;SDS011;19905;53.370;-6.314;2023-07-13T02:02:39;10.20;;;2.25;;
29934;SDS011;19905;53.370;-6.314;2023-07-13T02:05:14;7.22;;;2.20;;
29934;SDS011;19905;53.370;-6.314;2023-07-13T02:07:47;12.85;;;2.50;;
29934;SDS011;19905;53.370;-6.314;2023-07-13T02:12:53;10.88;;;2.25;;
29934;SDS011;19905;53.370;-6.314;2023-07-13T02:15:31;11.07;;;2.30;;
29934;SDS011;19905;53.370;-6.314;2023-07-13T02:18:00;13.40;;;2.58;;
29934;SDS011;19905;53.370;-6.314;2023-07-13T02:20:32;17.23;;;3.13;;
29934;SDS011;19905;53.370;-6.314;2023-07-13T02:23:03;12.73;;;2.78;;
29934;SDS011;19905;53.370;-6.314;2023-07-13T02:25:35;11.27;;;2.55;;
29934;SDS011;19905;53.370;-6.314;2023-07-13T02:28:06;13.43;;;2.53;;
29934;SDS011;19905;53.370;-6.314;2023-07-13T02:30:37;14.57;;;2.70;;
29934;SDS011;19905;53.370;-6.314;2023-07-13T02:33:08;12.15;;;2.80;;
29934;SDS011;19905;53.370;-6.314;2023-07-13T02:35:44;10.57;;;2.83;;
29934;SDS011;19905;53.370;-6.314;2023-07-13T02:38:17;11.60;;;3.00;;
29934;SDS011;19905;53.370;-6.314;2023-07-13T02:40:49;7.38;;;2.35;;
29934;SDS011;19905;53.370;-6.314;2023-07-13T02:43:19;13.30;;;2.97;;
29934;SDS011;19905;53.370;-6.314;2023-07-13T02:45:50;11.00;;;2.58;;
29934;SDS011;19905;53.370;-6.314;2023-07-13T02:48:19;14.95;;;2.88;;
29934;SDS011;19905;53.370;-6.314;2023-07-13T02:53:23;12.15;;;2.85;;
29934;SDS011;19905;53.370;-6.314;2023-07-13T02:55:54;11.52;;;2.95;;
29934;SDS011;19905;53.370;-6.314;2023-07-13T02:58:23;11.23;;;2.50;;
29934;SDS011;19905;53.370;-6.314;2023-07-13T03:00:57;10.40;;;2.78;;
29934;SDS011;19905;53.370;-6.314;2023-07-13T03:03:26;13.63;;;3.08;;
29934;SDS011;19905;53.370;-6.314;2023-07-13T03:05:58;14.65;;;3.10;;
29934;SDS011;19905;53.370;-6.314;2023-07-13T03:08:38;14.07;;;2.60;;
29934;SDS011;19905;53.370;-6.314;2023-07-13T03:11:09;11.85;;;2.60;;
29934;SDS011;19905;53.370;-6.314;2023-07-13T03:13:46;14.50;;;2.53;;
29934;SDS011;19905;53.370;-6.314;2023-07-13T03:16:23;8.90;;;2.30;;
29934;SDS011;19905;53.370;-6.314;2023-07-13T03:18:54;13.75;;;2.72;;
29934;SDS011;19905;53.370;-6.314;2023-07-13T03:21:23;13.57;;;2.42;;
29934;SDS011;19905;53.370;-6.314;2023-07-13T03:26:27;14.80;;;2.80;;
29934;SDS011;19905;53.370;-6.314;2023-07-13T03:28:56;16.73;;;2.85;;
29934;SDS011;19905;53.370;-6.314;2023-07-13T03:31:30;17.50;;;2.60;;
29934;SDS011;19905;53.370;-6.314;2023-07-13T03:34:01;10.05;;;2.80;;
29934;SDS011;19905;53.370;-6.314;2023-07-13T03:36:32;12.20;;;2.97;;
29934;SDS011;19905;53.370;-6.314;2023-07-13T03:39:03;14.50;;;2.70;;
29934;SDS011;19905;53.370;-6.314;2023-07-13T03:41:36;14.15;;;2.47;;
29934;SDS011;19905;53.370;-6.314;2023-07-13T03:44:07;10.00;;;2.70;;
29934;SDS011;19905;53.370;-6.314;2023-07-13T03:46:37;13.85;;;3.05;;
29934;SDS011;19905;53.370;-6.314;2023-07-13T03:49:07;13.95;;;2.60;;
29934;SDS011;19905;53.370;-6.314;2023-07-13T03:51:37;14.57;;;3.17;;
29934;SDS011;19905;53.370;-6.314;2023-07-13T03:54:08;10.00;;;2.38;;
29934;SDS011;19905;53.370;-6.314;2023-07-13T03:56:45;13.00;;;2.90;;
29934;SDS011;19905;53.370;-6.314;2023-07-13T03:59:14;12.68;;;2.97;;
29934;SDS011;19905;53.370;-6.314;2023-07-13T04:01:52;16.90;;;2.58;;
29934;SDS011;19905;53.370;-6.314;2023-07-13T04:04:29;17.75;;;3.83;;
29934;SDS011;19905;53.370;-6.314;2023-07-13T04:06:59;9.52;;;2.28;;
29934;SDS011;19905;53.370;-6.314;2023-07-13T04:12:04;13.65;;;2.67;;
29934;SDS011;19905;53.370;-6.314;2023-07-13T04:14:33;12.80;;;2.50;;
29934;SDS011;19905;53.370;-6.314;2023-07-13T04:17:02;15.27;;;2.83;;
29934;SDS011;19905;53.370;-6.314;2023-07-13T04:19:32;18.35;;;2.95;;
29934;SDS011;19905;53.370;-6.314;2023-07-13T04:22:07;14.90;;;2.58;;
29934;SDS011;19905;53.370;-6.314;2023-07-13T04:24:38;11.35;;;2.67;;
29934;SDS011;19905;53.370;-6.314;2023-07-13T04:27:08;14.00;;;2.53;;
29934;SDS011;19905;53.370;-6.314;2023-07-13T04:29:37;14.20;;;2.67;;
29934;SDS011;19905;53.370;-6.314;2023-07-13T04:32:09;16.63;;;3.00;;
29934;SDS011;19905;53.370;-6.314;2023-07-13T04:34:40;13.65;;;2.75;;
29934;SDS011;19905;53.370;-6.314;2023-07-13T04:37:09;15.30;;;2.85;;
29934;SDS011;19905;53.370;-6.314;2023-07-13T04:39:41;13.85;;;2.70;;
29934;SDS011;19905;53.370;-6.314;2023-07-13T04:44:47;12.55;;;2.97;;
29934;SDS011;19905;53.370;-6.314;2023-07-13T04:50:03;15.73;;;3.00;;
29934;SDS011;19905;53.370;-6.314;2023-07-13T04:52:33;14.30;;;2.70;;
29934;SDS011;19905;53.370;-6.314;2023-07-13T04:55:05;15.00;;;2.40;;
29934;SDS011;19905;53.370;-6.314;2023-07-13T04:57:35;16.75;;;3.00;;
29934;SDS011;19905;53.370;-6.314;2023-07-13T05:00:04;10.52;;;2.50;;
29934;SDS011;19905;53.370;-6.314;2023-07-13T05:02:37;16.02;;;3.03;;
29934;SDS011;19905;53.370;-6.314;2023-07-13T05:05:07;16.05;;;2.60;;
29934;SDS011;19905;53.370;-6.314;2023-07-13T05:07:42;15.63;;;2.90;;
29934;SDS011;19905;53.370;-6.314;2023-07-13T05:10:20;12.20;;;2.38;;
29934;SDS011;19905;53.370;-6.314;2023-07-13T05:12:55;14.07;;;2.60;;
29934;SDS011;19905;53.370;-6.314;2023-07-13T05:15:32;15.75;;;3.10;;
29934;SDS011;19905;53.370;-6.314;2023-07-13T05:18:01;11.70;;;2.70;;
29934;SDS011;19905;53.370;-6.314;2023-07-13T05:20:31;10.95;;;2.90;;
29934;SDS011;19905;53.370;-6.314;2023-07-13T05:23:01;13.52;;;2.80;;
29934;SDS011;19905;53.370;-6.314;2023-07-13T05:25:32;14.38;;;2.88;;
29934;SDS011;19905;53.370;-6.314;2023-07-13T05:28:02;20.20;;;3.55;;
29934;SDS011;19905;53.370;-6.314;2023-07-13T05:30:37;13.65;;;2.80;;
29934;SDS011;19905;53.370;-6.314;2023-07-13T05:33:06;13.20;;;2.63;;
29934;SDS011;19905;53.370;-6.314;2023-07-13T05:35:36;11.98;;;2.63;;
29934;SDS011;19905;53.370;-6.314;2023-07-13T05:38:09;14.32;;;2.65;;
29934;SDS011;19905;53.370;-6.314;2023-07-13T05:40:47;13.07;;;2.90;;
29934;SDS011;19905;53.370;-6.314;2023-07-13T05:45:56;15.80;;;2.95;;
29934;SDS011;19905;53.370;-6.314;2023-07-13T05:48:25;13.50;;;2.65;;
29934;SDS011;19905;53.370;-6.314;2023-07-13T05:51:03;14.50;;;3.10;;
29934;SDS011;19905;53.370;-6.314;2023-07-13T05:53:33;17.20;;;3.17;;
29934;SDS011;19905;53.370;-6.314;2023-07-13T05:56:06;14.80;;;2.85;;
29934;SDS011;19905;53.370;-6.314;2023-07-13T05:58:36;19.35;;;2.67;;
29934;SDS011;19905;53.370;-6.314;2023-07-13T06:01:12;17.08;;;3.03;;
29934;SDS011;19905;53.370;-6.314;2023-07-13T06:03:43;18.00;;;2.88;;
29934;SDS011;19905;53.370;-6.314;2023-07-13T06:08:50;10.43;;;2.63;;
29934;SDS011;19905;53.370;-6.314;2023-07-13T06:11:23;14.88;;;2.78;;
29934;SDS011;19905;53.370;-6.314;2023-07-13T06:13:54;11.05;;;2.20;;
29934;SDS011;19905;53.370;-6.314;2023-07-13T06:16:22;11.63;;;2.50;;
29934;SDS011;19905;53.370;-6.314;2023-07-13T06:18:52;16.38;;;3.28;;
29934;SDS011;19905;53.370;-6.314;2023-07-13T06:21:21;12.43;;;2.60;;
29934;SDS011;19905;53.370;-6.314;2023-07-13T06:23:51;20.60;;;2.72;;
29934;SDS011;19905;53.370;-6.314;2023-07-13T06:26:21;14.63;;;2.45;;
29934;SDS011;19905;53.370;-6.314;2023-07-13T06:28:52;11.38;;;2.40;;
29934;SDS011;19905;53.370;-6.314;2023-07-13T06:31:21;13.00;;;2.70;;
29934;SDS011;19905;53.370;-6.314;2023-07-13T06:33:50;15.10;;;2.80;;
29934;SDS011;19905;53.370;-6.314;2023-07-13T06:36:19;13.43;;;2.85;;
29934;SDS011;19905;53.370;-6.314;2023-07-13T06:38:48;13.52;;;2.53;;
29934;SDS011;19905;53.370;-6.314;2023-07-13T06:41:17;15.32;;;2.70;;
29934;SDS011;19905;53.370;-6.314;2023-07-13T06:43:48;15.25;;;2.80;;
29934;SDS011;19905;53.370;-6.314;2023-07-13T06:46:16;15.18;;;2.85;;
29934;SDS011;19905;53.370;-6.314;2023-07-13T06:48:45;15.95;;;2.75;;
29934;SDS011;19905;53.370;-6.314;2023-07-13T06:51:14;11.88;;;2.70;;
29934;SDS011;19905;53.370;-6.314;2023-07-13T06:53:44;9.98;;;2.50;;
29934;SDS011;19905;53.370;-6.314;2023-07-13T06:56:15;11.93;;;2.50;;
29934;SDS011;19905;53.370;-6.314;2023-07-13T06:58:43;16.98;;;2.80;;
29934;SDS011;19905;53.370;-6.314;2023-07-13T07:01:13;14.30;;;2.60;;
29934;SDS011;19905;53.370;-6.314;2023-07-13T07:03:44;14.45;;;2.50;;
29934;SDS011;19905;53.370;-6.314;2023-07-13T07:06:24;13.77;;;2.80;;
29934;SDS011;19905;53.370;-6.314;2023-07-13T08:12:43;6.78;;;1.77;;
29934;SDS011;19905;53.370;-6.314;2023-07-13T15:26:25;2.15;;;1.30;;
29934;SDS011;19905;53.370;-6.314;2023-07-13T15:28:53;6.38;;;1.55;;
29934;SDS011;19905;53.370;-6.314;2023-07-13T15:31:23;2.40;;;1.38;;
29934;SDS011;19905;53.370;-6.314;2023-07-13T15:33:55;3.15;;;1.42;;
29934;SDS011;19905;53.370;-6.314;2023-07-13T15:36:25;4.53;;;1.70;;
29934;SDS011;19905;53.370;-6.314;2023-07-13T15:38:56;2.78;;;1.50;;
29934;SDS011;19905;53.370;-6.314;2023-07-13T15:41:27;4.90;;;1.48;;
29934;SDS011;19905;53.370;-6.314;2023-07-13T15:43:57;5.57;;;1.90;;
29934;SDS011;19905;53.370;-6.314;2023-07-13T15:46:27;5.10;;;1.70;;
29934;SDS011;19905;53.370;-6.314;2023-07-13T15:48:56;3.95;;;1.50;;
29934;SDS011;19905;53.370;-6.314;2023-07-13T15:51:26;6.40;;;1.85;;
29934;SDS011;19905;53.370;-6.314;2023-07-13T15:53:57;3.60;;;1.35;;
29934;SDS011;19905;53.370;-6.314;2023-07-13T15:56:34;4.68;;;1.60;;
29934;SDS011;19905;53.370;-6.314;2023-07-13T15:59:12;3.28;;;1.73;;
29934;SDS011;19905;53.370;-6.314;2023-07-13T16:10:30;5.35;;;2.20;;
29934;SDS011;19905;53.370;-6.314;2023-07-13T17:02:24;4.05;;;2.20;;
29934;SDS011;19905;53.370;-6.314;2023-07-13T18:26:42;3.13;;;1.10;;
29934;SDS011;19905;53.370;-6.314;2023-07-13T18:29:12;2.63;;;1.15;;
29934;SDS011;19905;53.370;-6.314;2023-07-13T18:31:41;5.00;;;1.35;;
29934;SDS011;19905;53.370;-6.314;2023-07-13T18:34:12;3.00;;;1.30;;
29934;SDS011;19905;53.370;-6.314;2023-07-13T18:36:42;2.60;;;1.35;;
29934;SDS011;19905;53.370;-6.314;2023-07-13T18:39:13;4.47;;;1.33;;
29934;SDS011;19905;53.370;-6.314;2023-07-13T18:41:44;3.13;;;1.40;;
29934;SDS011;19905;53.370;-6.314;2023-07-13T18:44:13;3.75;;;1.55;;
29934;SDS011;19905;53.370;-6.314;2023-07-13T18:46:42;3.05;;;1.50;;
29934;SDS011;19905;53.370;-6.314;2023-07-13T18:49:11;4.05;;;1.75;;
29934;SDS011;19905;53.370;-6.314;2023-07-13T18:51:41;3.40;;;1.60;;
29934;SDS011;19905;53.370;-6.314;2023-07-13T18:54:13;5.38;;;1.83;;
29934;SDS011;19905;53.370;-6.314;2023-07-13T18:56:42;4.65;;;1.80;;
29934;SDS011;19905;53.370;-6.314;2023-07-13T18:59:12;4.25;;;2.00;;
29934;SDS011;19905;53.370;-6.314;2023-07-13T19:01:41;6.55;;;1.98;;
29934;SDS011;19905;53.370;-6.314;2023-07-13T19:04:23;6.78;;;2.42;;
29934;SDS011;19905;53.370;-6.314;2023-07-13T19:06:56;5.75;;;1.90;;
29934;SDS011;19905;53.370;-6.314;2023-07-13T19:09:24;5.22;;;2.00;;
29934;SDS011;19905;53.370;-6.314;2023-07-13T19:11:54;5.88;;;2.00;;
29934;SDS011;19905;53.370;-6.314;2023-07-13T19:14:24;7.55;;;1.77;;
29934;SDS011;19905;53.370;-6.314;2023-07-13T19:16:53;6.47;;;2.10;;
29934;SDS011;19905;53.370;-6.314;2023-07-13T19:19:23;5.47;;;2.03;;
29934;SDS011;19905;53.370;-6.314;2023-07-13T19:21:53;7.13;;;1.98;;
29934;SDS011;19905;53.370;-6.314;2023-07-13T19:24:24;6.90;;;1.90;;
29934;SDS011;19905;53.370;-6.314;2023-07-13T19:26:54;5.78;;;2.08;;
29934;SDS011;19905;53.370;-6.314;2023-07-13T19:29:26;6.75;;;1.98;;
29934;SDS011;19905;53.370;-6.314;2023-07-13T19:31:57;4.65;;;1.73;;
29934;SDS011;19905;53.370;-6.314;2023-07-13T19:34:26;5.90;;;1.90;;
29934;SDS011;19905;53.370;-6.314;2023-07-13T19:36:57;4.55;;;1.90;;
29934;SDS011;19905;53.370;-6.314;2023-07-13T19:39:29;6.82;;;1.70;;
29934;SDS011;19905;53.370;-6.314;2023-07-13T19:42:10;4.78;;;1.70;;
29934;SDS011;19905;53.370;-6.314;2023-07-13T19:44:45;5.80;;;1.50;;
29934;SDS011;19905;53.370;-6.314;2023-07-13T19:47:14;3.88;;;1.70;;
29934;SDS011;19905;53.370;-6.314;2023-07-13T19:49:44;3.65;;;1.50;;
29934;SDS011;19905;53.370;-6.314;2023-07-13T19:52:15;3.63;;;1.60;;
29934;SDS011;19905;53.370;-6.314;2023-07-13T19:54:45;4.10;;;1.73;;
29934;SDS011;19905;53.370;-6.314;2023-07-13T19:57:19;3.20;;;1.45;;
29934;SDS011;19905;53.370;-6.314;2023-07-13T19:59:51;3.78;;;1.60;;
29934;SDS011;19905;53.370;-6.314;2023-07-13T20:02:22;2.45;;;1.48;;
29934;SDS011;19905;53.370;-6.314;2023-07-13T20:04:52;3.80;;;1.60;;
29934;SDS011;19905;53.370;-6.314;2023-07-13T20:07:22;4.72;;;1.80;;
29934;SDS011;19905;53.370;-6.314;2023-07-13T20:09:52;4.25;;;1.80;;
29934;SDS011;19905;53.370;-6.314;2023-07-13T20:12:22;6.15;;;1.92;;
29934;SDS011;19905;53.370;-6.314;2023-07-13T20:14:54;5.70;;;1.60;;
29934;SDS011;19905;53.370;-6.314;2023-07-13T20:17:28;5.32;;;1.95;;
29934;SDS011;19905;53.370;-6.314;2023-07-13T20:20:01;4.07;;;1.70;;
29934;SDS011;19905;53.370;-6.314;2023-07-13T20:22:45;5.13;;;1.70;;
29934;SDS011;19905;53.370;-6.314;2023-07-13T20:25:15;4.50;;;2.00;;
29934;SDS011;19905;53.370;-6.314;2023-07-13T20:27:44;3.10;;;1.70;;
29934;SDS011;19905;53.370;-6.314;2023-07-13T20:30:15;3.92;;;1.80;;
29934;SDS011;19905;53.370;-6.314;2023-07-13T20:32:45;5.57;;;1.77;;
29934;SDS011;19905;53.370;-6.314;2023-07-13T20:35:25;4.63;;;2.20;;
29934;SDS011;19905;53.370;-6.314;2023-07-13T20:37:56;3.97;;;1.80;;
29934;SDS011;19905;53.370;-6.314;2023-07-13T20:40:26;4.35;;;1.90;;
29934;SDS011;19905;53.370;-6.314;2023-07-13T20:42:57;4.65;;;2.22;;
29934;SDS011;19905;53.370;-6.314;2023-07-13T20:45:28;5.35;;;2.05;;
29934;SDS011;19905;53.370;-6.314;2023-07-13T20:48:00;6.65;;;2.10;;
29934;SDS011;19905;53.370;-6.314;2023-07-13T20:50:55;4.60;;;2.05;;
29934;SDS011;19905;53.370;-6.314;2023-07-13T20:53:33;5.72;;;1.95;;
29934;SDS011;19905;53.370;-6.314;2023-07-13T20:56:01;6.40;;;2.20;;
29934;SDS011;19905;53.370;-6.314;2023-07-13T20:58:35;5.53;;;1.90;;
29934;SDS011;19905;53.370;-6.314;2023-07-13T21:01:05;4.75;;;1.98;;
29934;SDS011;19905;53.370;-6.314;2023-07-13T21:03:40;6.20;;;1.90;;
29934;SDS011;19905;53.370;-6.314;2023-07-13T21:06:13;5.18;;;1.88;;
29934;SDS011;19905;53.370;-6.314;2023-07-13T21:08:44;6.85;;;2.13;;
29934;SDS011;19905;53.370;-6.314;2023-07-13T21:11:13;6.65;;;2.13;;
29934;SDS011;19905;53.370;-6.314;2023-07-13T21:13:42;4.85;;;2.00;;
29934;SDS011;19905;53.370;-6.314;2023-07-13T21:16:16;4.50;;;2.00;;
29934;SDS011;19905;53.370;-6.314;2023-07-13T21:18:48;5.00;;;2.10;;
29934;SDS011;19905;53.370;-6.314;2023-07-13T21:21:18;4.93;;;2.20;;
29934;SDS011;19905;53.370;-6.314;2023-07-13T21:23:49;4.53;;;2.00;;
29934;SDS011;19905;53.370;-6.314;2023-07-13T21:26:19;5.13;;;2.05;;
29934;SDS011;19905;53.370;-6.314;2023-07-13T21:28:49;3.47;;;2.30;;
29934;SDS011;19905;53.370;-6.314;2023-07-13T21:31:22;8.85;;;2.70;;
29934;SDS011;19905;53.370;-6.314;2023-07-13T21:33:54;6.95;;;3.05;;
29934;SDS011;19905;53.370;-6.314;2023-07-13T21:36:26;4.95;;;2.65;;
29934;SDS011;19905;53.370;-6.314;2023-07-13T21:38:57;6.28;;;2.70;;
29934;SDS011;19905;53.370;-6.314;2023-07-13T21:41:29;5.80;;;2.00;;
29934;SDS011;19905;53.370;-6.314;2023-07-13T21:44:00;3.78;;;2.20;;
29934;SDS011;19905;53.370;-6.314;2023-07-13T21:46:30;4.18;;;2.17;;
29934;SDS011;19905;53.370;-6.314;2023-07-13T21:48:59;3.75;;;2.13;;
29934;SDS011;19905;53.370;-6.314;2023-07-13T21:51:28;5.28;;;2.30;;
29934;SDS011;19905;53.370;-6.314;2023-07-13T21:53:56;3.72;;;1.90;;
29934;SDS011;19905;53.370;-6.314;2023-07-13T21:56:25;3.85;;;1.98;;
29934;SDS011;19905;53.370;-6.314;2023-07-13T21:58:53;3.72;;;1.88;;
29934;SDS011;19905;53.370;-6.314;2023-07-13T22:01:22;4.97;;;2.10;;
29934;SDS011;19905;53.370;-6.314;2023-07-13T22:03:58;5.13;;;2.10;;
29934;SDS011;19905;53.370;-6.314;2023-07-13T22:06:28;7.28;;;2.60;;
29934;SDS011;19905;53.370;-6.314;2023-07-13T22:08:58;4.38;;;2.22;;
29934;SDS011;19905;53.370;-6.314;2023-07-13T22:11:26;6.07;;;2.17;;
29934;SDS011;19905;53.370;-6.314;2023-07-13T22:13:55;3.78;;;2.00;;
29934;SDS011;19905;53.370;-6.314;2023-07-13T22:16:25;4.15;;;1.83;;
29934;SDS011;19905;53.370;-6.314;2023-07-13T22:18:56;4.47;;;2.08;;
29934;SDS011;19905;53.370;-6.314;2023-07-13T22:21:28;6.07;;;2.00;;
29934;SDS011;19905;53.370;-6.314;2023-07-13T22:23:58;4.30;;;1.63;;
29934;SDS011;19905;53.370;-6.314;2023-07-13T22:26:28;3.80;;;2.22;;
29934;SDS011;19905;53.370;-6.314;2023-07-13T22:28:59;5.53;;;2.15;;
29934;SDS011;19905;53.370;-6.314;2023-07-13T22:31:29;5.30;;;2.33;;
29934;SDS011;19905;53.370;-6.314;2023-07-13T22:33:59;4.60;;;2.15;;
29934;SDS011;19905;53.370;-6.314;2023-07-13T22:36:28;4.50;;;2.20;;
29934;SDS011;19905;53.370;-6.314;2023-07-13T22:38:56;5.43;;;1.92;;
29934;SDS011;19905;53.370;-6.314;2023-07-13T22:41:25;6.72;;;2.10;;
29934;SDS011;19905;53.370;-6.314;2023-07-13T22:43:53;4.97;;;2.10;;
29934;SDS011;19905;53.370;-6.314;2023-07-13T22:46:23;4.35;;;2.10;;
29934;SDS011;19905;53.370;-6.314;2023-07-13T22:48:55;6.45;;;2.15;;
29934;SDS011;19905;53.370;-6.314;2023-07-13T22:51:26;7.43;;;2.00;;
29934;SDS011;19905;53.370;-6.314;2023-07-13T22:53:55;4.00;;;1.90;;
29934;SDS011;19905;53.370;-6.314;2023-07-13T22:56:24;5.28;;;2.08;;
29934;SDS011;19905;53.370;-6.314;2023-07-13T22:58:53;6.03;;;1.67;;
29934;SDS011;19905;53.370;-6.314;2023-07-13T23:01:23;7.40;;;1.90;;
29934;SDS011;19905;53.370;-6.314;2023-07-13T23:03:54;8.07;;;1.70;;
29934;SDS011;19905;53.370;-6.314;2023-07-13T23:06:28;5.10;;;1.60;;
29934;SDS011;19905;53.370;-6.314;2023-07-13T23:09:00;6.75;;;1.88;;
29934;SDS011;19905;53.370;-6.314;2023-07-13T23:11:30;5.85;;;1.73;;
29934;SDS011;19905;53.370;-6.314;2023-07-13T23:13:59;6.35;;;1.60;;
29934;SDS011;19905;53.370;-6.314;2023-07-13T23:16:28;4.57;;;1.52;;
29934;SDS011;19905;53.370;-6.314;2023-07-13T23:18:59;5.70;;;1.48;;
29934;SDS011;19905;53.370;-6.314;2023-07-13T23:21:30;8.45;;;1.90;;
29934;SDS011;19905;53.370;-6.314;2023-07-13T23:24:00;4.57;;;1.73;;
29934;SDS011;19905;53.370;-6.314;2023-07-13T23:26:29;4.72;;;1.55;;
29934;SDS011;19905;53.370;-6.314;2023-07-13T23:28:58;5.38;;;1.50;;
29934;SDS011;19905;53.370;-6.314;2023-07-13T23:31:27;6.57;;;1.90;;
29934;SDS011;19905;53.370;-6.314;2023-07-13T23:33:58;4.72;;;1.60;;
29934;SDS011;19905;53.370;-6.314;2023-07-13T23:36:32;5.10;;;1.70;;
29934;SDS011;19905;53.370;-6.314;2023-07-13T23:39:01;4.90;;;1.60;;
29934;SDS011;19905;53.370;-6.314;2023-07-13T23:41:30;4.40;;;1.50;;
29934;SDS011;19905;53.370;-6.314;2023-07-13T23:43:59;5.55;;;1.70;;
29934;SDS011;19905;53.370;-6.314;2023-07-13T23:46:29;5.25;;;1.80;;
29934;SDS011;19905;53.370;-6.314;2023-07-13T23:49:09;5.50;;;1.60;;
29934;SDS011;19905;53.370;-6.314;2023-07-13T23:51:52;4.63;;;1.50;;
29934;SDS011;19905;53.370;-6.314;2023-07-13T23:54:22;7.97;;;1.70;;
29934;SDS011;19905;53.370;-6.314;2023-07-13T23:56:54;8.13;;;1.80;;
29934;SDS011;19905;53.370;-6.314;2023-07-13T23:59:22;5.13;;;1.60;;
